LFBO/TLS METAR and TAF weather

Enter ICAO airport designator
Station Type Date Time Source
LFBO METAR 2019/10/22 16:00 UTC NOAA

LFBO 221600Z AUTO 26004KT 9999 SCT005 BKN014 OVC020 12/11 Q1014 TEMPO 2000 RA BKN005


Station Type Date Time Source
LFBO Decoded METAR 2019/10/22 16:00 UTC NOAA

Toulouse / Blagnac, France (LFBO) 43-38N 001-22E 153M
Oct 22, 2019 - 12:00 PM EDT / 2019.10.22 1600 UTC
Wind: from the W (260 degrees) at 5 MPH (4 KT):0
Visibility: greater than 7 mile(s):0
Sky conditions: overcast
Temperature: 53 F (12 C)
Dew Point: 51 F (11 C)
Relative Humidity: 93%
Pressure (altimeter): 29.94 in. Hg (1014 hPa)
ob: LFBO 221600Z AUTO 26004KT 9999 SCT005 BKN014 OVC020 12/11 Q1014 TEMPO 2000 RA BKN005
cycle: 16

Station Type Date Time Source
LFBO TAF 2019/10/22 12:42 UTC NOAA

TAF TAF LFBO 221100Z 2212/2318 VRB03KT 9999 -RA SCT007 BKN040
TEMPO 2212/2305 2000 BKN005 PROB30
TEMPO 2300/2305 1000 +RA BKN003 SCT026CB
BECMG 2305/2306 09012KT NSW PROB30
TEMPO 2306/2310 12020G30KT 2000 RA BKN010 BKN030CB PROB30 2310/2318 BKN010

Example: see airport list